Time;durP1;ratioP1;P1;durP2;ratioP2;P2;SDS_P1;SDS_P2;PMS_P1;PMS_P2;Temp;Humidity;BMP_temperature;BMP_pressure;BME280_temperature;BME280_humidity;BME280_pressure;Samples;Min_cycle;Max_cycle;Signal;HPM_P1;HPM_P2
2021/12/15 00:01:51;;;;;;;163.30;36.25;;;;;;;;;;8237355;28;20105;-73
2021/12/15 00:05:56;;;;;;;140.50;35.53;;;;;;;;;;8235044;28;20062;-72
2021/12/15 00:09:59;;;;;;;159.57;31.80;;;;;;;;;;8203681;28;20066;-73
2021/12/15 00:14:03;;;;;;;155.85;32.58;;;;;;;;;;8205364;29;20051;-72
2021/12/15 00:18:06;;;;;;;128.73;29.60;;;;;;;;;;8204837;29;20051;-75
2021/12/15 00:22:11;;;;;;;149.18;32.05;;;;;;;;;;8205392;29;20106;-73
2021/12/15 00:26:14;;;;;;;250.60;34.58;;;;;;;;;;8205084;28;20479;-73
2021/12/15 00:30:18;;;;;;;246.60;34.42;;;;;;;;;;8205077;29;20416;-73
2021/12/15 00:34:22;;;;;;;159.30;32.00;;;;;;;;;;8204296;28;20059;-73
2021/12/15 00:38:27;;;;;;;153.60;29.95;;;;;;;;;;8204176;29;20058;-73
2021/12/15 00:42:30;;;;;;;130.40;30.30;;;;;;;;;;8204139;29;20047;-73
2021/12/15 00:46:33;;;;;;;183.77;34.47;;;;;;;;;;8204477;29;20051;-75
2021/12/15 00:50:36;;;;;;;211.75;35.55;;;;;;;;;;8203951;29;20047;-73
2021/12/15 00:54:41;;;;;;;220.40;38.38;;;;;;;;;;8203677;29;20051;-72
2021/12/15 00:58:44;;;;;;;243.00;38.17;;;;;;;;;;8203691;29;20058;-73
2021/12/15 01:02:48;;;;;;;127.90;27.67;;;;;;;;;;8232410;28;20054;-73
2021/12/15 01:06:55;;;;;;;147.82;29.23;;;;;;;;;;8235291;28;20051;-73
2021/12/15 01:11:11;;;;;;;204.68;32.47;;;;;;;;;;8235393;28;20062;-72
2021/12/15 01:19:53;;;;;;;110.85;26.88;;;;;;;;;;8234615;28;20062;-73
2021/12/15 01:23:56;;;;;;;176.43;30.40;;;;;;;;;;8234829;28;20054;-72
2021/12/15 01:28:00;;;;;;;210.73;31.58;;;;;;;;;;8234739;28;20105;-73
2021/12/15 01:32:04;;;;;;;210.65;32.78;;;;;;;;;;8235002;28;20507;-74
2021/12/15 01:36:09;;;;;;;151.23;31.35;;;;;;;;;;8230949;28;20085;-73
2021/12/15 01:40:22;;;;;;;215.50;32.33;;;;;;;;;;8234312;28;20055;-73
2021/12/15 01:48:56;;;;;;;147.48;31.52;;;;;;;;;;8209050;28;20043;-73
2021/12/15 01:52:59;;;;;;;123.07;26.73;;;;;;;;;;8202099;29;20106;-75
2021/12/15 01:57:02;;;;;;;151.10;28.85;;;;;;;;;;8202340;29;20053;-73
2021/12/15 02:01:11;;;;;;;117.63;29.30;;;;;;;;;;8201862;29;20114;-73
2021/12/15 02:05:14;;;;;;;166.55;32.78;;;;;;;;;;8230132;28;20475;-72
2021/12/15 02:09:31;;;;;;;151.30;31.20;;;;;;;;;;8233475;28;20051;-73
2021/12/15 02:13:34;;;;;;;170.50;32.05;;;;;;;;;;8237996;28;20494;-73
2021/12/15 02:17:40;;;;;;;130.80;30.85;;;;;;;;;;8238116;28;20039;-73
2021/12/15 02:21:44;;;;;;;137.48;28.02;;;;;;;;;;8230567;28;20051;-74
2021/12/15 02:25:49;;;;;;;150.40;30.15;;;;;;;;;;8232825;28;20061;-72
2021/12/15 02:29:58;;;;;;;161.40;28.40;;;;;;;;;;8246836;28;20057;-73
2021/12/15 02:34:18;;;;;;;103.90;26.52;;;;;;;;;;8252877;28;20054;-72
2021/12/15 02:38:27;;;;;;;182.70;27.98;;;;;;;;;;8253401;28;20134;-73
2021/12/15 02:42:33;;;;;;;155.25;32.38;;;;;;;;;;8249770;28;20043;-73
2021/12/15 02:46:37;;;;;;;122.10;33.97;;;;;;;;;;8249647;28;20043;-73
2021/12/15 02:50:40;;;;;;;124.50;30.63;;;;;;;;;;8236505;28;20050;-74
2021/12/15 02:54:44;;;;;;;97.88;27.77;;;;;;;;;;8253532;28;20402;-74
2021/12/15 02:58:53;;;;;;;157.93;28.40;;;;;;;;;;8254809;28;20483;-73
2021/12/15 03:07:29;;;;;;;127.63;25.60;;;;;;;;;;8239055;28;20042;-73
2021/12/15 03:15:58;;;;;;;144.45;34.03;;;;;;;;;;8238575;28;20062;-73
2021/12/15 03:20:01;;;;;;;150.93;32.30;;;;;;;;;;8238542;28;20079;-73
2021/12/15 03:24:11;;;;;;;129.55;32.22;;;;;;;;;;8238484;28;20043;-80
2021/12/15 03:41:16;;;;;;;128.52;28.90;;;;;;;;;;8231159;28;20503;-72
2021/12/15 03:45:26;;;;;;;147.40;27.20;;;;;;;;;;8237614;28;20498;-73
2021/12/15 03:49:29;;;;;;;124.32;26.88;;;;;;;;;;8238211;28;20042;-73
2021/12/15 03:53:33;;;;;;;129.88;30.15;;;;;;;;;;8238472;28;20396;-72
2021/12/15 03:57:36;;;;;;;115.82;28.08;;;;;;;;;;8237915;28;20061;-73
2021/12/15 04:01:40;;;;;;;131.48;29.02;;;;;;;;;;8237370;28;20109;-73
2021/12/15 04:05:44;;;;;;;118.25;28.20;;;;;;;;;;8237795;28;20053;-73
2021/12/15 04:09:48;;;;;;;161.00;27.65;;;;;;;;;;8236877;28;20097;-73
2021/12/15 04:13:52;;;;;;;197.23;34.53;;;;;;;;;;8236892;28;20051;-73
2021/12/15 04:17:59;;;;;;;155.40;27.45;;;;;;;;;;8236765;28;20062;-73
2021/12/15 04:22:02;;;;;;;137.85;22.70;;;;;;;;;;8236748;28;20050;-73
2021/12/15 04:26:04;;;;;;;128.98;22.80;;;;;;;;;;8237088;28;20082;-73
2021/12/15 04:30:11;;;;;;;99.57;22.77;;;;;;;;;;8236469;28;20047;-73
2021/12/15 04:34:15;;;;;;;144.35;24.42;;;;;;;;;;8236427;28;20061;-72
2021/12/15 04:38:18;;;;;;;145.13;23.60;;;;;;;;;;8236237;28;20388;-73
2021/12/15 04:42:24;;;;;;;159.60;24.98;;;;;;;;;;8236107;28;20046;-73
2021/12/15 04:46:32;;;;;;;148.65;24.00;;;;;;;;;;8236046;28;20053;-73
2021/12/15 04:50:36;;;;;;;135.30;23.95;;;;;;;;;;8236039;28;20053;-73
2021/12/15 04:54:40;;;;;;;102.30;23.98;;;;;;;;;;8234937;28;20050;-73
2021/12/15 04:58:43;;;;;;;112.10;23.92;;;;;;;;;;8235618;28;20450;-72
2021/12/15 05:02:47;;;;;;;140.32;28.23;;;;;;;;;;8235872;28;20054;-73
2021/12/15 05:06:52;;;;;;;124.22;28.80;;;;;;;;;;8235922;28;20403;-73
2021/12/15 05:10:56;;;;;;;140.63;28.08;;;;;;;;;;8234978;28;20054;-73
2021/12/15 05:14:59;;;;;;;107.40;25.27;;;;;;;;;;8235040;28;20046;-72
2021/12/15 05:19:03;;;;;;;125.63;26.10;;;;;;;;;;8235466;28;20406;-80
2021/12/15 05:23:08;;;;;;;135.73;29.40;;;;;;;;;;8234752;28;20050;-73
2021/12/15 05:27:13;;;;;;;119.43;27.70;;;;;;;;;;8234653;28;20129;-73
2021/12/15 05:31:17;;;;;;;115.47;27.40;;;;;;;;;;8235355;28;20055;-73
2021/12/15 05:35:23;;;;;;;126.07;28.58;;;;;;;;;;8234461;28;20058;-73
2021/12/15 05:39:28;;;;;;;157.43;29.80;;;;;;;;;;8234929;28;20414;-73
2021/12/15 05:43:31;;;;;;;271.73;50.67;;;;;;;;;;8234754;28;20073;-75
2021/12/15 05:47:34;;;;;;;253.13;40.40;;;;;;;;;;8234649;28;20062;-73
2021/12/15 05:51:38;;;;;;;282.13;42.08;;;;;;;;;;8234186;28;20518;-79
2021/12/15 05:55:43;;;;;;;281.40;41.88;;;;;;;;;;8234250;28;20059;-77
2021/12/15 05:59:46;;;;;;;257.45;40.40;;;;;;;;;;8233927;28;20055;-73
2021/12/15 06:03:49;;;;;;;269.38;38.75;;;;;;;;;;8233883;28;20092;-73
2021/12/15 06:07:52;;;;;;;133.75;31.70;;;;;;;;;;8233643;28;20062;-79
2021/12/15 06:11:57;;;;;;;164.45;37.30;;;;;;;;;;8233500;28;20058;-73
2021/12/15 06:16:01;;;;;;;149.52;35.72;;;;;;;;;;8233422;28;20141;-73
2021/12/15 06:20:05;;;;;;;235.20;35.22;;;;;;;;;;8233516;28;20059;-73
2021/12/15 06:24:09;;;;;;;191.23;31.33;;;;;;;;;;8233402;28;20047;-73
2021/12/15 06:28:14;;;;;;;206.63;34.15;;;;;;;;;;8233693;28;20454;-73
2021/12/15 06:32:18;;;;;;;130.38;32.72;;;;;;;;;;8233378;28;20050;-73
2021/12/15 06:36:21;;;;;;;120.03;30.92;;;;;;;;;;8233099;28;20051;-74
2021/12/15 06:40:25;;;;;;;120.10;35.22;;;;;;;;;;8233589;28;20050;-73
2021/12/15 06:44:30;;;;;;;136.70;31.98;;;;;;;;;;8233556;28;20046;-74
2021/12/15 06:57:31;;;;;;;187.68;40.70;;;;;;;;;;8200265;29;20051;-73
2021/12/15 07:01:35;;;;;;;147.52;36.33;;;;;;;;;;8200903;29;20086;-73
2021/12/15 07:05:39;;;;;;;114.95;24.77;;;;;;;;;;8201295;29;20048;-73
2021/12/15 07:09:42;;;;;;;106.60;24.13;;;;;;;;;;8200600;29;20051;-72
2021/12/15 07:13:45;;;;;;;123.05;30.88;;;;;;;;;;8203832;28;20055;-74
2021/12/15 07:17:53;;;;;;;201.20;53.20;;;;;;;;;;8234316;28;20054;-74
2021/12/15 07:22:08;;;;;;;159.85;47.35;;;;;;;;;;8241797;28;20050;-74
2021/12/15 07:26:10;;;;;;;134.68;41.03;;;;;;;;;;8254461;28;20113;-73
2021/12/15 07:30:14;;;;;;;82.35;30.40;;;;;;;;;;8250376;28;20065;-73
2021/12/15 07:34:18;;;;;;;135.02;38.53;;;;;;;;;;8243129;28;20070;-78
2021/12/15 07:38:21;;;;;;;113.40;31.95;;;;;;;;;;8252702;28;20066;-78
2021/12/15 07:42:31;;;;;;;139.40;38.50;;;;;;;;;;8247130;28;20153;-80
2021/12/15 07:46:35;;;;;;;120.40;25.42;;;;;;;;;;8228661;28;20051;-73
2021/12/15 07:50:42;;;;;;;106.40;30.15;;;;;;;;;;8248465;28;20043;-73
2021/12/15 07:54:45;;;;;;;129.45;33.88;;;;;;;;;;8267473;28;20203;-73
2021/12/15 07:58:48;;;;;;;154.27;43.25;;;;;;;;;;8244007;28;20101;-73
2021/12/15 08:02:52;;;;;;;112.93;28.42;;;;;;;;;;8226399;28;20054;-74
2021/12/15 08:06:56;;;;;;;136.63;31.60;;;;;;;;;;8227055;28;20502;-73
2021/12/15 08:11:00;;;;;;;109.78;24.75;;;;;;;;;;8205115;29;20079;-73
2021/12/15 08:15:04;;;;;;;80.53;26.17;;;;;;;;;;8224555;28;20066;-73
2021/12/15 08:19:08;;;;;;;102.22;29.65;;;;;;;;;;8214906;28;20064;-74
2021/12/15 08:23:13;;;;;;;99.20;28.50;;;;;;;;;;8205679;29;20109;-74
2021/12/15 08:27:16;;;;;;;112.10;24.73;;;;;;;;;;8230577;28;20128;-74
2021/12/15 08:31:20;;;;;;;104.20;32.90;;;;;;;;;;8217609;28;20157;-73
2021/12/15 08:35:26;;;;;;;94.03;24.70;;;;;;;;;;8235125;28;20046;-74
2021/12/15 08:39:30;;;;;;;154.88;38.83;;;;;;;;;;8202856;29;20053;-75
2021/12/15 08:43:35;;;;;;;140.38;37.38;;;;;;;;;;8203288;29;20106;-73
2021/12/15 08:47:38;;;;;;;126.40;30.70;;;;;;;;;;8203763;29;20051;-73
2021/12/15 08:51:42;;;;;;;80.07;21.40;;;;;;;;;;8204105;29;20051;-74
2021/12/15 08:55:48;;;;;;;99.22;27.08;;;;;;;;;;8204643;29;20079;-73
2021/12/15 08:59:53;;;;;;;121.68;34.03;;;;;;;;;;8204165;29;20063;-74
2021/12/15 09:03:57;;;;;;;90.82;25.35;;;;;;;;;;8203580;29;20058;-73
2021/12/15 09:08:04;;;;;;;80.88;25.42;;;;;;;;;;8221324;28;20447;-73
2021/12/15 09:12:11;;;;;;;160.50;48.85;;;;;;;;;;8211877;28;20495;-73
2021/12/15 09:16:16;;;;;;;145.80;45.53;;;;;;;;;;8213484;28;20693;-73
2021/12/15 09:20:23;;;;;;;203.10;58.70;;;;;;;;;;8227736;28;20384;-74
2021/12/15 09:24:29;;;;;;;188.05;49.75;;;;;;;;;;8221024;28;20046;-73
2021/12/15 09:28:34;;;;;;;118.50;29.92;;;;;;;;;;8230457;28;20045;-74
2021/12/15 09:32:38;;;;;;;78.13;27.45;;;;;;;;;;8233726;28;20129;-73
2021/12/15 09:36:41;;;;;;;70.15;23.17;;;;;;;;;;8233777;28;20061;-73
2021/12/15 09:40:47;;;;;;;99.25;24.88;;;;;;;;;;8229413;28;20038;-73
2021/12/15 09:44:59;;;;;;;115.50;38.13;;;;;;;;;;8233595;28;20074;-72
2021/12/15 10:02:28;;;;;;;122.60;41.28;;;;;;;;;;8231717;28;20043;-72
2021/12/15 10:06:47;;;;;;;139.50;38.65;;;;;;;;;;8222177;28;20047;-73
2021/12/15 10:11:13;;;;;;;180.93;55.65;;;;;;;;;;8233616;28;20062;-73
2021/12/15 10:19:46;;;;;;;102.10;25.10;;;;;;;;;;8222620;28;20495;-72
2021/12/15 10:23:50;;;;;;;86.15;23.20;;;;;;;;;;8227863;28;20055;-73
2021/12/15 10:27:55;;;;;;;161.65;32.63;;;;;;;;;;8228149;28;20081;-71
2021/12/15 10:32:02;;;;;;;165.23;53.58;;;;;;;;;;8233482;28;20051;-72
2021/12/15 10:36:08;;;;;;;164.25;40.40;;;;;;;;;;8232557;28;20117;-73
2021/12/15 10:40:21;;;;;;;130.40;41.17;;;;;;;;;;8232779;28;20054;-73
2021/12/15 10:44:28;;;;;;;94.13;29.15;;;;;;;;;;8228324;28;20043;-72
2021/12/15 10:48:38;;;;;;;137.93;32.38;;;;;;;;;;8231374;28;20518;-73
2021/12/15 10:52:54;;;;;;;189.30;30.17;;;;;;;;;;8232549;28;20126;-74
2021/12/15 10:57:00;;;;;;;208.02;28.23;;;;;;;;;;8239116;28;20114;-73
2021/12/15 11:01:26;;;;;;;84.47;21.23;;;;;;;;;;8239173;28;20101;-74
2021/12/15 11:05:29;;;;;;;138.60;23.17;;;;;;;;;;8237460;28;20042;-71
2021/12/15 11:09:36;;;;;;;158.43;29.17;;;;;;;;;;8219449;28;20051;-73
2021/12/15 11:13:39;;;;;;;95.00;27.48;;;;;;;;;;8206593;29;20047;-73
2021/12/15 11:17:44;;;;;;;90.88;23.10;;;;;;;;;;8235469;28;20146;-73
2021/12/15 11:21:47;;;;;;;83.97;23.80;;;;;;;;;;8238411;28;20490;-73
2021/12/15 11:25:54;;;;;;;68.00;18.20;;;;;;;;;;8236561;28;20121;-73
2021/12/15 11:29:57;;;;;;;64.72;19.02;;;;;;;;;;8237471;28;20055;-73
2021/12/15 11:34:05;;;;;;;67.20;18.02;;;;;;;;;;8225602;28;20051;-74
2021/12/15 11:38:15;;;;;;;59.10;20.33;;;;;;;;;;8229874;28;20120;-74
2021/12/15 11:42:29;;;;;;;72.97;22.30;;;;;;;;;;8204589;29;20483;-81
2021/12/15 11:46:42;;;;;;;60.55;21.10;;;;;;;;;;8204286;29;20459;-74
2021/12/15 11:50:51;;;;;;;58.85;20.10;;;;;;;;;;8205149;29;20134;-73
2021/12/15 11:54:57;;;;;;;53.97;20.45;;;;;;;;;;8205290;29;20052;-74
2021/12/15 11:59:18;;;;;;;55.65;20.20;;;;;;;;;;8205190;29;20054;-73
2021/12/15 12:03:24;;;;;;;66.20;23.20;;;;;;;;;;8205300;28;20491;-73
2021/12/15 12:07:30;;;;;;;69.45;24.77;;;;;;;;;;8204866;29;20079;-74
2021/12/15 12:11:39;;;;;;;89.32;30.30;;;;;;;;;;8204796;29;20055;-74
2021/12/15 12:15:46;;;;;;;117.00;33.67;;;;;;;;;;8204817;29;20134;-73
2021/12/15 12:19:57;;;;;;;85.88;28.77;;;;;;;;;;8205029;29;20054;-73
2021/12/15 12:24:01;;;;;;;80.30;27.48;;;;;;;;;;8204555;29;20102;-73
2021/12/15 12:28:08;;;;;;;208.95;56.92;;;;;;;;;;8204376;29;20051;-73
2021/12/15 12:32:59;;;;;;;102.55;31.73;;;;;;;;;;8204852;29;20043;-73
2021/12/15 12:37:11;;;;;;;65.90;19.17;;;;;;;;;;8204071;29;20051;-73
2021/12/15 12:41:19;;;;;;;85.18;25.92;;;;;;;;;;8204795;29;20476;-73
2021/12/15 12:45:33;;;;;;;85.65;24.90;;;;;;;;;;8232478;28;20042;-72
2021/12/15 12:50:07;;;;;;;96.65;24.90;;;;;;;;;;8235672;28;20402;-73
2021/12/15 13:03:08;;;;;;;84.60;25.90;;;;;;;;;;8217517;28;20061;-72
2021/12/15 13:07:12;;;;;;;124.75;25.35;;;;;;;;;;8216088;28;20475;-74
2021/12/15 13:11:34;;;;;;;102.85;25.98;;;;;;;;;;8235012;28;20065;-74
2021/12/15 13:15:36;;;;;;;130.77;36.38;;;;;;;;;;8234235;28;20050;-73
2021/12/15 13:19:44;;;;;;;205.00;48.03;;;;;;;;;;8235348;28;20498;-73
2021/12/15 13:23:55;;;;;;;173.35;40.35;;;;;;;;;;8235237;28;20066;-79
2021/12/15 13:32:30;;;;;;;114.18;28.83;;;;;;;;;;8234078;28;20074;-79
2021/12/15 13:36:34;;;;;;;137.75;34.38;;;;;;;;;;8234244;28;20046;-73
2021/12/15 13:41:20;;;;;;;203.00;52.20;;;;;;;;;;8234209;28;20050;-74
2021/12/15 13:45:31;;;;;;;168.93;44.08;;;;;;;;;;8230107;28;20062;-73
2021/12/15 13:49:42;;;;;;;226.50;59.20;;;;;;;;;;8230867;28;20137;-73
2021/12/15 13:53:45;;;;;;;195.85;29.42;;;;;;;;;;8233797;28;20062;-74
2021/12/15 13:58:20;;;;;;;177.05;32.47;;;;;;;;;;8234002;28;20077;-73
2021/12/15 14:02:30;;;;;;;150.10;24.98;;;;;;;;;;8222915;28;20142;-77
2021/12/15 14:06:34;;;;;;;101.43;24.65;;;;;;;;;;8232843;28;20578;-74
2021/12/15 14:11:03;;;;;;;151.50;27.38;;;;;;;;;;8223402;28;20141;-74
2021/12/15 14:15:09;;;;;;;160.77;53.88;;;;;;;;;;8231553;28;20138;-73
2021/12/15 14:19:17;;;;;;;111.93;25.75;;;;;;;;;;8232548;28;20053;-74
2021/12/15 14:23:22;;;;;;;197.95;27.55;;;;;;;;;;8233228;28;20050;-73
2021/12/15 14:27:25;;;;;;;136.20;20.08;;;;;;;;;;8231868;28;20493;-74
2021/12/15 14:31:31;;;;;;;138.18;23.50;;;;;;;;;;8233050;28;20050;-74
2021/12/15 14:35:36;;;;;;;92.88;21.52;;;;;;;;;;8231313;28;20054;-74
2021/12/15 14:39:42;;;;;;;181.20;28.25;;;;;;;;;;8223275;28;20050;-74
2021/12/15 14:43:51;;;;;;;219.30;48.65;;;;;;;;;;8217439;28;20129;-74
2021/12/15 14:47:54;;;;;;;209.45;34.95;;;;;;;;;;8223228;28;20047;-73
2021/12/15 14:52:02;;;;;;;282.40;38.00;;;;;;;;;;8207301;28;20051;-74
2021/12/15 14:56:06;;;;;;;172.20;34.35;;;;;;;;;;8200338;29;20142;-73
2021/12/15 15:00:13;;;;;;;274.50;41.65;;;;;;;;;;8201428;28;20043;-74
2021/12/15 15:04:16;;;;;;;255.60;34.92;;;;;;;;;;8219041;28;20422;-74
2021/12/15 15:08:27;;;;;;;248.95;36.33;;;;;;;;;;8221646;28;20058;-74
2021/12/15 15:12:33;;;;;;;161.30;35.47;;;;;;;;;;8229203;28;20112;-73
2021/12/15 15:16:36;;;;;;;211.65;41.20;;;;;;;;;;8229265;28;20047;-74
2021/12/15 15:20:44;;;;;;;248.07;39.75;;;;;;;;;;8231561;28;20050;-73
2021/12/15 15:24:49;;;;;;;201.90;48.05;;;;;;;;;;8233282;28;20515;-74
2021/12/15 15:28:53;;;;;;;260.38;40.25;;;;;;;;;;8232495;28;20055;-73
2021/12/15 15:32:59;;;;;;;228.52;39.13;;;;;;;;;;8216836;28;20055;-80
2021/12/15 15:37:14;;;;;;;285.52;38.28;;;;;;;;;;8223099;28;20047;-73
2021/12/15 15:41:22;;;;;;;216.50;36.08;;;;;;;;;;8223784;28;20055;-74
2021/12/15 15:45:30;;;;;;;170.35;33.55;;;;;;;;;;8219966;28;20039;-73
2021/12/15 15:49:33;;;;;;;212.73;46.25;;;;;;;;;;8217949;28;20059;-75
2021/12/15 15:53:38;;;;;;;241.60;45.95;;;;;;;;;;8205922;29;20043;-73
2021/12/15 15:57:49;;;;;;;244.88;42.90;;;;;;;;;;8205719;29;20047;-74
2021/12/15 16:01:55;;;;;;;184.52;43.55;;;;;;;;;;8205622;29;20047;-74
2021/12/15 16:06:02;;;;;;;210.27;41.92;;;;;;;;;;8205983;29;20051;-74
2021/12/15 16:10:06;;;;;;;129.90;39.92;;;;;;;;;;8205522;29;20062;-73
2021/12/15 16:14:13;;;;;;;121.43;28.33;;;;;;;;;;8205417;28;20051;-73
2021/12/15 16:18:26;;;;;;;216.57;40.55;;;;;;;;;;8205483;29;20066;-73
2021/12/15 16:26:53;;;;;;;225.13;37.08;;;;;;;;;;8212653;28;20050;-74
2021/12/15 16:30:59;;;;;;;182.55;31.77;;;;;;;;;;8233614;28;20097;-73
2021/12/15 16:35:38;;;;;;;216.43;28.02;;;;;;;;;;8227296;28;20047;-72
2021/12/15 16:39:46;;;;;;;219.88;29.35;;;;;;;;;;8223629;28;20082;-77
2021/12/15 16:43:52;;;;;;;120.63;24.52;;;;;;;;;;8226601;28;20047;-74
2021/12/15 16:47:58;;;;;;;198.75;24.60;;;;;;;;;;8229336;28;20035;-74
2021/12/15 16:52:09;;;;;;;133.93;29.55;;;;;;;;;;8228943;28;20073;-74
2021/12/15 16:56:21;;;;;;;119.63;30.00;;;;;;;;;;8221536;28;20446;-73
2021/12/15 17:00:27;;;;;;;168.57;33.88;;;;;;;;;;8214464;28;20039;-73
2021/12/15 17:05:00;;;;;;;356.02;71.32;;;;;;;;;;8206768;28;20038;-75
2021/12/15 17:09:41;;;;;;;292.27;60.20;;;;;;;;;;8236174;28;20070;-74
2021/12/15 17:13:54;;;;;;;311.90;55.83;;;;;;;;;;8224825;28;20150;-73
2021/12/15 17:18:03;;;;;;;303.58;55.85;;;;;;;;;;8259563;28;20402;-74
2021/12/15 17:22:19;;;;;;;614.63;106.03;;;;;;;;;;8246407;28;20050;-74
2021/12/15 17:26:32;;;;;;;252.32;46.65;;;;;;;;;;8227053;28;20050;-79
2021/12/15 17:30:44;;;;;;;250.70;28.17;;;;;;;;;;8231854;28;20142;-74
2021/12/15 17:34:48;;;;;;;247.65;46.65;;;;;;;;;;8249105;28;20046;-74
2021/12/15 17:39:07;;;;;;;211.13;44.20;;;;;;;;;;8232288;28;20054;-73
2021/12/15 17:43:14;;;;;;;292.27;69.70;;;;;;;;;;8249002;28;20544;-77
2021/12/15 17:47:22;;;;;;;155.48;37.70;;;;;;;;;;8261743;28;20104;-81
2021/12/15 17:51:44;;;;;;;152.55;27.40;;;;;;;;;;8264208;28;20050;-80
2021/12/15 17:55:53;;;;;;;253.30;23.65;;;;;;;;;;8252488;28;20046;-74
2021/12/15 17:59:58;;;;;;;204.65;23.98;;;;;;;;;;8244511;28;20057;-73
2021/12/15 18:04:02;;;;;;;276.15;27.40;;;;;;;;;;8261790;28;20053;-74
2021/12/15 18:08:07;;;;;;;215.48;33.55;;;;;;;;;;8264045;28;20510;-74
2021/12/15 18:12:17;;;;;;;307.75;28.65;;;;;;;;;;8262955;28;20058;-73
2021/12/15 18:16:20;;;;;;;261.85;47.20;;;;;;;;;;8252288;28;20411;-74
2021/12/15 18:20:24;;;;;;;297.55;48.00;;;;;;;;;;8231808;28;20258;-74
2021/12/15 18:24:28;;;;;;;302.83;46.50;;;;;;;;;;8230984;28;20147;-74
2021/12/15 18:28:32;;;;;;;186.57;30.08;;;;;;;;;;8231935;28;20047;-74
2021/12/15 18:32:35;;;;;;;298.02;41.17;;;;;;;;;;8230951;28;20046;-73
2021/12/15 18:36:40;;;;;;;317.10;40.35;;;;;;;;;;8260268;28;20410;-73
2021/12/15 18:40:46;;;;;;;251.88;36.10;;;;;;;;;;8264485;28;20410;-74
2021/12/15 18:45:04;;;;;;;241.13;42.58;;;;;;;;;;8236112;28;20406;-74
2021/12/15 18:49:14;;;;;;;291.75;45.28;;;;;;;;;;8234914;28;20074;-74
2021/12/15 18:53:20;;;;;;;172.55;41.85;;;;;;;;;;8230565;28;20100;-74
2021/12/15 18:57:27;;;;;;;222.73;40.08;;;;;;;;;;8230684;28;20497;-75
2021/12/15 19:02:22;;;;;;;285.33;40.60;;;;;;;;;;8240276;28;20054;-74
2021/12/15 19:11:53;;;;;;;175.90;31.60;;;;;;;;;;8250136;28;20069;-74
2021/12/15 19:21:19;;;;;;;264.60;44.60;;;;;;;;;;8266551;28;20100;-73
2021/12/15 19:25:24;;;;;;;221.85;37.05;;;;;;;;;;8251330;28;20102;-74
2021/12/15 19:29:34;;;;;;;340.23;37.40;;;;;;;;;;8232387;28;20047;-75
2021/12/15 19:33:41;;;;;;;195.35;43.83;;;;;;;;;;8232129;28;20038;-73
2021/12/15 19:37:47;;;;;;;174.82;50.42;;;;;;;;;;8237438;28;20542;-74
2021/12/15 19:41:54;;;;;;;143.52;31.10;;;;;;;;;;8237667;28;20093;-74
2021/12/15 19:45:58;;;;;;;108.28;32.80;;;;;;;;;;8238179;28;20050;-74
2021/12/15 19:50:02;;;;;;;125.32;39.58;;;;;;;;;;8237866;28;20069;-73
2021/12/15 19:54:08;;;;;;;101.63;24.60;;;;;;;;;;8237873;28;20050;-73
2021/12/15 19:58:12;;;;;;;178.07;26.25;;;;;;;;;;8237716;28;20043;-73
2021/12/15 20:02:15;;;;;;;204.63;27.58;;;;;;;;;;8222046;28;20058;-74
2021/12/15 20:06:20;;;;;;;122.82;25.50;;;;;;;;;;8206075;29;20071;-74
2021/12/15 20:10:26;;;;;;;124.57;20.55;;;;;;;;;;8205634;29;20568;-73
2021/12/15 20:14:29;;;;;;;235.02;22.27;;;;;;;;;;8205335;29;20047;-74
2021/12/15 20:18:34;;;;;;;96.88;18.73;;;;;;;;;;8205494;29;20388;-74
2021/12/15 20:22:52;;;;;;;184.98;22.63;;;;;;;;;;8205965;28;20050;-74
2021/12/15 20:27:04;;;;;;;175.57;21.33;;;;;;;;;;8233755;28;20138;-73
2021/12/15 20:31:13;;;;;;;166.75;19.23;;;;;;;;;;8232834;28;20047;-73
2021/12/15 20:35:21;;;;;;;277.08;21.45;;;;;;;;;;8235199;28;20069;-75
2021/12/15 20:39:32;;;;;;;137.60;18.77;;;;;;;;;;8240872;28;20126;-75
2021/12/15 20:43:40;;;;;;;;;;;;;;;;;;8239651;28;20071;-74
2021/12/15 20:47:45;;;;;;;126.15;18.55;;;;;;;;;;8248011;28;19921;-73
2021/12/15 20:51:55;;;;;;;228.05;22.83;;;;;;;;;;8247186;28;20058;-74
2021/12/15 20:55:58;;;;;;;213.60;32.20;;;;;;;;;;8241310;28;20050;-75
2021/12/15 21:00:05;;;;;;;172.52;27.30;;;;;;;;;;8235706;28;20058;-75
2021/12/15 21:04:10;;;;;;;322.00;31.92;;;;;;;;;;8236109;28;20074;-73
2021/12/15 21:08:14;;;;;;;172.15;31.92;;;;;;;;;;8235416;28;20057;-73
2021/12/15 21:12:20;;;;;;;196.95;36.47;;;;;;;;;;8235242;28;20059;-73
2021/12/15 21:16:26;;;;;;;191.32;26.95;;;;;;;;;;8235808;28;20046;-74
2021/12/15 21:20:30;;;;;;;322.38;33.38;;;;;;;;;;8235075;28;20102;-73
2021/12/15 21:24:33;;;;;;;333.58;32.40;;;;;;;;;;8235076;28;20047;-73
2021/12/15 21:28:39;;;;;;;161.93;28.63;;;;;;;;;;8234964;28;20050;-73
2021/12/15 21:32:44;;;;;;;151.50;29.92;;;;;;;;;;8234831;28;20057;-74
2021/12/15 21:36:47;;;;;;;239.80;30.40;;;;;;;;;;8234278;28;20046;-74
2021/12/15 21:40:51;;;;;;;191.90;29.50;;;;;;;;;;8234430;28;20066;-74
2021/12/15 21:44:55;;;;;;;198.88;25.40;;;;;;;;;;8234516;28;20495;-74
2021/12/15 21:49:01;;;;;;;201.73;25.20;;;;;;;;;;8234411;28;20074;-74
2021/12/15 21:53:06;;;;;;;203.13;19.58;;;;;;;;;;8234276;28;20050;-74
2021/12/15 21:57:11;;;;;;;198.68;24.90;;;;;;;;;;8234246;28;20407;-73
2021/12/15 22:01:14;;;;;;;292.23;29.88;;;;;;;;;;8233922;28;20061;-73
2021/12/15 22:05:22;;;;;;;231.13;22.50;;;;;;;;;;8234407;28;20412;-74
2021/12/15 22:09:26;;;;;;;224.60;22.02;;;;;;;;;;8233846;28;20057;-73
2021/12/15 22:13:29;;;;;;;207.57;19.80;;;;;;;;;;8232991;28;20517;-73
2021/12/15 22:17:33;;;;;;;189.98;20.52;;;;;;;;;;8232441;28;20414;-74
2021/12/15 22:21:39;;;;;;;250.35;22.42;;;;;;;;;;8232741;28;20070;-76
2021/12/15 22:25:43;;;;;;;289.83;19.38;;;;;;;;;;8232244;28;20054;-72
2021/12/15 22:29:48;;;;;;;170.82;20.88;;;;;;;;;;8232302;28;20098;-75
2021/12/15 22:33:52;;;;;;;122.25;18.83;;;;;;;;;;8232601;28;20414;-74
2021/12/15 22:37:57;;;;;;;223.60;20.60;;;;;;;;;;8232567;28;20054;-74
2021/12/15 22:42:02;;;;;;;166.05;21.00;;;;;;;;;;8231969;28;20070;-74
2021/12/15 22:46:06;;;;;;;176.07;27.08;;;;;;;;;;8232438;28;20498;-74
2021/12/15 22:50:12;;;;;;;283.15;21.88;;;;;;;;;;8235471;28;20073;-74
2021/12/15 22:54:17;;;;;;;157.50;19.40;;;;;;;;;;8237546;28;20450;-74
2021/12/15 22:58:21;;;;;;;213.32;21.42;;;;;;;;;;8222868;28;20466;-73
2021/12/15 23:02:29;;;;;;;117.10;18.50;;;;;;;;;;8224964;28;20450;-73
2021/12/15 23:06:38;;;;;;;116.05;17.17;;;;;;;;;;8237718;28;20054;-75
2021/12/15 23:10:49;;;;;;;161.70;19.45;;;;;;;;;;8192980;28;1503857;-74
2021/12/15 23:14:56;;;;;;;173.00;19.80;;;;;;;;;;8252233;28;20049;-74
2021/12/15 23:19:01;;;;;;;154.60;20.52;;;;;;;;;;8246119;28;20043;-80
2021/12/15 23:23:08;;;;;;;173.95;20.23;;;;;;;;;;8235432;28;20046;-76
2021/12/15 23:27:12;;;;;;;124.20;20.58;;;;;;;;;;8236397;28;20134;-75
2021/12/15 23:31:19;;;;;;;265.63;23.00;;;;;;;;;;8238028;28;20066;-74
